Time;durP1;ratioP1;P1;durP2;ratioP2;P2;SDS_P1;SDS_P2;PMS_P1;PMS_P2;Temp;Humidity;BMP_temperature;BMP_pressure;BME280_temperature;BME280_humidity;BME280_pressure;Samples;Min_cycle;Max_cycle;Signal;HPM_P1;HPM_P2
2020/12/02 00:01:20;;;;;;;2.58;1.70;;;3.40;99.90;;;;;;5001234;28;20542;-62
2020/12/02 00:03:58;;;;;;;2.75;1.77;;;3.40;99.90;;;;;;5004898;28;20206;-62
2020/12/02 00:06:25;;;;;;;1.70;0.20;;;3.40;99.90;;;;;;5013159;28;20560;-62
2020/12/02 00:08:57;;;;;;;2.92;1.55;;;3.50;99.90;;;;;;5013725;28;20190;-62
2020/12/02 00:11:25;;;;;;;2.63;1.55;;;3.40;99.90;;;;;;5009505;28;20179;-62
2020/12/02 00:13:51;;;;;;;7.18;2.05;;;3.40;99.90;;;;;;5014402;28;20186;-62
2020/12/02 00:16:23;;;;;;;1.70;0.20;;;3.40;99.90;;;;;;5017156;28;20547;-62
2020/12/02 00:18:52;;;;;;;1.75;0.20;;;3.40;99.90;;;;;;5011147;28;20206;-62
2020/12/02 00:21:18;;;;;;;1.70;0.20;;;3.40;99.90;;;;;;5014140;28;20190;-63
2020/12/02 00:23:45;;;;;;;1.70;0.20;;;3.50;99.90;;;;;;5012889;28;20186;-63
2020/12/02 00:26:15;;;;;;;2.75;1.38;;;3.50;99.90;;;;;;5010692;28;20213;-63
2020/12/02 00:28:41;;;;;;;1.70;0.20;;;3.40;99.90;;;;;;5009044;28;20175;-63
2020/12/02 00:31:07;;;;;;;6.72;4.18;;;3.40;99.90;;;;;;5012647;28;20189;-62
2020/12/02 00:33:32;;;;;;;11.07;5.73;;;3.40;99.90;;;;;;5019283;28;20183;-62
2020/12/02 00:35:58;;;;;;;2.40;0.80;;;3.40;99.90;;;;;;5027257;28;20214;-62
2020/12/02 00:38:24;;;;;;;11.30;5.03;;;3.40;99.90;;;;;;5029695;28;20207;-62
2020/12/02 00:40:51;;;;;;;5.67;3.87;;;3.40;99.90;;;;;;5028594;28;20195;-62
2020/12/02 00:43:21;;;;;;;1.70;0.20;;;3.40;99.90;;;;;;5027134;28;20194;-62
2020/12/02 00:45:48;;;;;;;1.77;0.20;;;3.40;99.90;;;;;;5009308;28;20566;-62
2020/12/02 00:48:17;;;;;;;1.70;0.20;;;3.40;99.90;;;;;;5013209;28;20266;-62
2020/12/02 00:50:42;;;;;;;11.02;6.18;;;3.40;99.90;;;;;;5013825;28;20179;-63
2020/12/02 00:53:18;;;;;;;7.27;3.33;;;3.40;99.90;;;;;;5009398;28;20245;-63
2020/12/02 00:55:46;;;;;;;6.32;2.85;;;3.40;99.90;;;;;;5003213;28;20672;-63
2020/12/02 00:58:34;;;;;;;6.57;3.75;;;3.40;99.90;;;;;;5013484;28;20191;-62
2020/12/02 01:01:04;;;;;;;1.73;0.20;;;3.40;99.90;;;;;;5008867;28;20210;-63
2020/12/02 01:03:31;;;;;;;6.03;3.20;;;3.40;99.90;;;;;;5005939;28;20194;-64
2020/12/02 01:06:00;;;;;;;6.55;3.60;;;3.40;99.90;;;;;;5012640;28;20252;-64
2020/12/02 01:08:35;;;;;;;3.55;1.95;;;3.40;99.90;;;;;;5020938;28;20227;-64
2020/12/02 01:11:17;;;;;;;4.72;2.40;;;3.40;99.90;;;;;;5009977;28;20182;-64
2020/12/02 01:13:44;;;;;;;3.17;1.40;;;3.40;99.90;;;;;;5007967;28;20179;-62
2020/12/02 01:16:35;;;;;;;1.75;0.25;;;3.40;99.90;;;;;;5012327;28;20600;-62
2020/12/02 01:19:00;;;;;;;3.13;0.65;;;3.30;99.90;;;;;;5009167;28;21004;-63
2020/12/02 01:22:03;;;;;;;1.70;0.20;;;3.30;99.90;;;;;;5017377;28;20199;-63
2020/12/02 01:24:51;;;;;;;5.13;2.75;;;3.40;99.90;;;;;;5012833;28;20214;-62
2020/12/02 01:27:41;;;;;;;1.95;0.93;;;3.40;99.90;;;;;;5005911;28;20219;-62
2020/12/02 01:30:10;;;;;;;2.65;2.35;;;3.40;99.90;;;;;;5005022;28;20179;-62
2020/12/02 01:32:36;;;;;;;2.75;2.25;;;3.40;99.90;;;;;;5007219;28;20226;-62
2020/12/02 01:35:05;;;;;;;1.70;0.20;;;3.50;99.90;;;;;;5005116;28;20289;-62
2020/12/02 01:37:41;;;;;;;2.33;1.98;;;3.40;99.90;;;;;;5008047;28;20650;-63
2020/12/02 01:40:28;;;;;;;2.17;1.58;;;3.40;99.90;;;;;;5019208;28;20653;-62
2020/12/02 01:43:00;;;;;;;3.95;2.88;;;3.40;99.90;;;;;;5004886;28;20198;-62
2020/12/02 01:45:34;;;;;;;6.30;3.50;;;3.40;99.90;;;;;;5004021;28;20218;-62
2020/12/02 01:48:28;;;;;;;1.73;0.30;;;3.20;99.90;;;;;;5011259;28;20189;-62
2020/12/02 01:51:10;;;;;;;2.00;0.57;;;3.30;99.90;;;;;;5011925;28;20841;-63
2020/12/02 01:53:59;;;;;;;1.80;0.45;;;3.30;99.90;;;;;;5009772;28;20264;-62
2020/12/02 01:56:57;;;;;;;1.70;0.20;;;3.30;99.90;;;;;;5010836;28;20681;-62
2020/12/02 01:59:47;;;;;;;1.70;0.20;;;3.30;99.90;;;;;;5000044;28;20222;-63
2020/12/02 02:02:24;;;;;;;1.70;0.20;;;3.30;99.90;;;;;;5009112;28;20564;-63
2020/12/02 02:04:50;;;;;;;1.70;0.20;;;3.30;99.90;;;;;;5029198;28;20225;-62
2020/12/02 02:07:24;;;;;;;6.80;3.50;;;3.40;99.90;;;;;;5032826;28;20652;-63
2020/12/02 02:09:56;;;;;;;1.70;0.20;;;3.40;99.90;;;;;;5033961;28;20190;-63
2020/12/02 02:12:43;;;;;;;1.70;0.20;;;3.40;99.90;;;;;;5025809;28;20194;-62
2020/12/02 02:15:23;;;;;;;1.70;0.20;;;3.40;99.90;;;;;;5023537;28;20205;-62
2020/12/02 02:18:05;;;;;;;2.55;1.20;;;3.50;99.90;;;;;;5010952;28;20214;-63
2020/12/02 02:20:34;;;;;;;12.13;4.90;;;3.40;99.90;;;;;;5010136;28;20669;-63
2020/12/02 02:23:01;;;;;;;1.70;0.20;;;3.30;99.90;;;;;;5007253;28;20194;-63
2020/12/02 02:25:27;;;;;;;1.80;0.30;;;3.30;99.90;;;;;;5009470;28;20218;-62
2020/12/02 02:27:55;;;;;;;1.70;0.20;;;3.40;99.90;;;;;;5011972;28;20179;-62
2020/12/02 02:30:21;;;;;;;1.80;0.20;;;3.40;99.90;;;;;;5009759;28;20199;-62
2020/12/02 02:32:47;;;;;;;2.63;0.80;;;3.40;99.90;;;;;;5003312;28;20666;-62
2020/12/02 02:35:14;;;;;;;3.03;1.60;;;3.50;99.90;;;;;;5007282;28;20301;-62
2020/12/02 02:37:39;;;;;;;1.70;0.20;;;3.50;99.90;;;;;;5007661;28;20183;-62
2020/12/02 02:40:08;;;;;;;1.77;0.20;;;3.50;99.90;;;;;;5011022;28;20187;-62
2020/12/02 02:42:39;;;;;;;2.80;1.63;;;3.50;99.90;;;;;;5007718;28;20187;-62
2020/12/02 02:45:15;;;;;;;3.90;1.90;;;3.50;99.90;;;;;;5007066;28;20242;-62
2020/12/02 02:47:41;;;;;;;2.08;0.70;;;3.50;99.90;;;;;;5007079;28;20182;-62
2020/12/02 02:50:13;;;;;;;1.70;0.20;;;3.50;99.90;;;;;;5009106;28;20198;-62
2020/12/02 02:52:40;;;;;;;2.25;1.00;;;3.50;99.90;;;;;;5009742;28;20657;-62
2020/12/02 02:55:10;;;;;;;1.80;0.40;;;3.40;99.90;;;;;;5004303;28;20337;-63
2020/12/02 02:57:36;;;;;;;1.70;0.20;;;3.50;99.90;;;;;;5005593;28;20673;-63
2020/12/02 03:00:05;;;;;;;1.90;0.50;;;3.50;99.90;;;;;;5008529;28;20190;-62
2020/12/02 03:02:31;;;;;;;10.38;6.50;;;3.40;99.90;;;;;;4998428;28;20450;-62
2020/12/02 03:04:57;;;;;;;4.80;3.30;;;3.40;99.90;;;;;;5009096;28;20757;-63
2020/12/02 03:07:22;;;;;;;1.70;0.20;;;3.40;99.90;;;;;;5009482;28;20197;-62
2020/12/02 03:09:48;;;;;;;1.70;0.20;;;3.40;99.90;;;;;;5007718;28;20179;-62
2020/12/02 03:12:14;;;;;;;1.80;0.30;;;3.50;99.90;;;;;;5005032;28;20553;-62
2020/12/02 03:14:43;;;;;;;1.70;0.20;;;3.50;99.90;;;;;;5010914;28;21551;-62
2020/12/02 03:17:17;;;;;;;3.00;2.70;;;3.50;99.90;;;;;;5009635;28;20218;-62
2020/12/02 03:19:50;;;;;;;7.47;3.60;;;3.40;99.90;;;;;;5006617;28;20197;-62
2020/12/02 03:22:20;;;;;;;1.70;0.20;;;3.40;99.90;;;;;;5015191;28;20222;-63
2020/12/02 03:24:46;;;;;;;1.70;0.20;;;3.40;99.90;;;;;;5010076;28;20313;-62
2020/12/02 03:27:12;;;;;;;2.42;1.15;;;3.40;99.90;;;;;;5009512;28;20171;-62
2020/12/02 03:29:37;;;;;;;1.90;0.50;;;3.40;99.90;;;;;;5008249;28;20190;-62
2020/12/02 03:32:03;;;;;;;7.80;4.10;;;3.50;99.90;;;;;;5009963;28;20685;-62
2020/12/02 03:34:29;;;;;;;1.70;0.20;;;3.40;99.90;;;;;;5006479;28;20210;-62
2020/12/02 03:36:54;;;;;;;1.70;0.20;;;3.40;99.90;;;;;;5007567;28;20214;-62
2020/12/02 03:39:20;;;;;;;1.70;0.20;;;3.50;99.90;;;;;;5004310;28;20193;-63
2020/12/02 03:41:46;;;;;;;1.70;0.20;;;3.50;99.90;;;;;;5006232;28;20191;-62
2020/12/02 03:44:12;;;;;;;1.70;0.20;;;3.50;99.90;;;;;;5011061;28;20213;-63
2020/12/02 03:46:39;;;;;;;2.33;0.87;;;3.50;99.90;;;;;;5022166;28;20223;-62
2020/12/02 03:49:05;;;;;;;5.90;3.03;;;3.50;99.90;;;;;;5015538;28;20457;-63
2020/12/02 03:51:35;;;;;;;1.80;0.43;;;3.40;99.90;;;;;;5007617;28;20175;-62
2020/12/02 03:54:00;;;;;;;10.75;6.57;;;3.40;99.90;;;;;;5007914;28;20187;-62
2020/12/02 03:56:27;;;;;;;1.70;0.20;;;3.40;99.90;;;;;;5015141;28;20653;-62
2020/12/02 03:58:52;;;;;;;8.27;4.47;;;3.40;99.90;;;;;;5024556;28;20182;-62
2020/12/02 04:01:18;;;;;;;2.50;0.93;;;3.40;99.90;;;;;;5004318;28;20191;-62
2020/12/02 04:03:44;;;;;;;4.90;3.40;;;3.30;99.90;;;;;;5004053;28;20236;-62
2020/12/02 04:06:10;;;;;;;1.80;0.40;;;3.40;99.90;;;;;;5008183;28;20473;-62
2020/12/02 04:08:38;;;;;;;1.77;0.32;;;3.40;99.90;;;;;;5007152;28;20187;-62
2020/12/02 04:11:04;;;;;;;1.70;0.20;;;3.40;99.90;;;;;;5011423;28;20175;-64
2020/12/02 04:13:31;;;;;;;2.00;0.80;;;3.40;99.90;;;;;;5014699;28;20244;-62
2020/12/02 04:15:56;;;;;;;8.48;5.78;;;3.50;99.90;;;;;;5011445;28;20293;-64
2020/12/02 04:18:22;;;;;;;1.77;0.30;;;3.40;99.90;;;;;;5011847;28;20768;-64
2020/12/02 04:20:48;;;;;;;1.73;0.20;;;3.40;99.90;;;;;;5013883;28;20194;-62
2020/12/02 04:23:13;;;;;;;5.50;2.67;;;3.40;99.90;;;;;;5018821;28;20187;-62
2020/12/02 04:25:39;;;;;;;4.47;2.63;;;3.50;99.90;;;;;;5013178;28;20313;-64
2020/12/02 04:28:05;;;;;;;1.70;0.20;;;3.50;99.90;;;;;;5008851;28;20191;-64
2020/12/02 04:30:31;;;;;;;1.70;0.20;;;3.50;99.90;;;;;;5014963;28;20190;-64
2020/12/02 04:32:57;;;;;;;3.17;1.80;;;3.50;99.90;;;;;;5013166;28;20173;-61
2020/12/02 04:35:22;;;;;;;10.93;7.10;;;3.50;99.90;;;;;;5008545;28;20554;-65
2020/12/02 04:37:48;;;;;;;2.10;0.47;;;3.40;99.90;;;;;;5010819;28;20460;-62
2020/12/02 04:40:40;;;;;;;1.90;0.50;;;3.40;99.90;;;;;;5012601;28;20219;-62
2020/12/02 04:43:11;;;;;;;1.70;0.20;;;3.40;99.90;;;;;;5007310;28;20186;-63
2020/12/02 04:45:37;;;;;;;1.70;0.20;;;3.50;99.90;;;;;;5011667;28;20903;-62
2020/12/02 04:48:11;;;;;;;6.47;4.10;;;3.40;99.90;;;;;;5013553;28;20257;-62
2020/12/02 04:50:37;;;;;;;14.57;6.60;;;3.40;99.90;;;;;;5011197;28;20433;-62
2020/12/02 04:53:11;;;;;;;1.73;0.30;;;3.40;99.90;;;;;;5011123;28;20515;-62
2020/12/02 04:55:38;;;;;;;1.70;0.20;;;3.30;99.90;;;;;;5005681;28;20193;-62
2020/12/02 04:58:18;;;;;;;2.28;0.50;;;3.30;99.90;;;;;;5009719;28;20233;-62
2020/12/02 05:00:44;;;;;;;11.82;7.68;;;3.30;99.90;;;;;;5010055;28;20193;-62
2020/12/02 05:03:15;;;;;;;1.70;0.20;;;3.30;99.90;;;;;;5008331;28;20178;-62
2020/12/02 05:05:41;;;;;;;7.88;5.00;;;3.30;99.90;;;;;;5004959;28;20218;-62
2020/12/02 05:08:27;;;;;;;1.80;0.30;;;3.40;99.90;;;;;;5010499;28;20273;-63
2020/12/02 05:10:54;;;;;;;5.45;2.58;;;3.30;99.90;;;;;;5012938;28;20441;-63
2020/12/02 05:13:20;;;;;;;5.68;5.18;;;3.40;99.90;;;;;;5008255;28;20189;-63
2020/12/02 05:15:46;;;;;;;2.80;1.15;;;3.30;99.90;;;;;;5009667;28;20285;-63
2020/12/02 05:18:15;;;;;;;1.70;0.20;;;3.30;99.90;;;;;;5012134;28;20266;-63
2020/12/02 05:20:41;;;;;;;1.70;0.20;;;3.30;99.90;;;;;;5007795;28;20689;-62
2020/12/02 05:23:20;;;;;;;1.70;0.20;;;3.20;99.90;;;;;;5009863;28;20659;-63
2020/12/02 05:25:46;;;;;;;2.72;1.95;;;3.40;99.90;;;;;;5013068;28;20241;-63
2020/12/02 05:28:20;;;;;;;1.70;0.20;;;3.40;99.90;;;;;;5009854;28;20669;-63
2020/12/02 05:30:47;;;;;;;1.75;0.20;;;3.40;99.90;;;;;;5009731;28;20181;-63
2020/12/02 05:33:12;;;;;;;10.98;6.13;;;3.40;99.90;;;;;;5006454;28;20186;-62
2020/12/02 05:36:03;;;;;;;2.60;1.20;;;3.30;99.90;;;;;;5015325;28;20225;-63
2020/12/02 05:38:36;;;;;;;4.70;2.17;;;3.30;99.90;;;;;;5014451;28;20190;-63
2020/12/02 05:41:05;;;;;;;4.95;1.50;;;3.30;99.90;;;;;;5013830;28;20202;-63
2020/12/02 05:43:54;;;;;;;1.70;0.20;;;3.30;99.90;;;;;;5010349;28;20178;-63
2020/12/02 05:46:35;;;;;;;1.73;0.20;;;3.30;99.90;;;;;;4994913;28;20744;-63
2020/12/02 05:49:16;;;;;;;1.70;0.20;;;3.30;99.90;;;;;;5007209;28;20198;-63
2020/12/02 05:51:42;;;;;;;13.13;6.57;;;3.40;99.90;;;;;;5010254;28;20277;-63
2020/12/02 05:54:26;;;;;;;1.90;0.53;;;3.30;99.90;;;;;;5014417;28;20292;-63
2020/12/02 05:56:52;;;;;;;7.78;3.80;;;3.20;99.90;;;;;;5012305;28;20190;-63
2020/12/02 05:59:22;;;;;;;1.70;0.20;;;3.30;99.90;;;;;;5015047;28;20221;-63
2020/12/02 06:01:48;;;;;;;1.70;0.20;;;3.30;99.90;;;;;;5021377;28;20457;-64
2020/12/02 06:04:15;;;;;;;1.70;0.20;;;3.40;99.90;;;;;;5022322;28;20191;-63
2020/12/02 06:06:52;;;;;;;1.75;0.30;;;3.50;99.90;;;;;;5027695;28;20517;-64
2020/12/02 06:09:19;;;;;;;1.80;0.30;;;3.50;99.90;;;;;;5021879;28;20178;-63
2020/12/02 06:11:45;;;;;;;1.80;0.30;;;3.50;99.90;;;;;;5015200;28;20205;-63
2020/12/02 06:14:31;;;;;;;4.50;2.50;;;3.50;99.90;;;;;;5017218;28;20195;-64
2020/12/02 06:16:57;;;;;;;1.77;0.20;;;3.40;99.90;;;;;;5030614;28;20301;-64
2020/12/02 06:19:38;;;;;;;4.70;4.32;;;3.40;99.90;;;;;;5035891;28;20732;-63
2020/12/02 06:22:06;;;;;;;4.40;2.08;;;3.40;99.90;;;;;;5031809;28;20206;-63
2020/12/02 06:24:44;;;;;;;7.82;4.05;;;3.50;99.90;;;;;;5028206;28;20306;-64
2020/12/02 06:27:15;;;;;;;1.70;0.20;;;3.40;99.90;;;;;;5027375;28;20214;-63
2020/12/02 06:29:50;;;;;;;3.80;1.35;;;3.30;99.90;;;;;;5024578;28;20202;-64
2020/12/02 06:32:22;;;;;;;10.13;6.85;;;3.30;99.90;;;;;;5017308;28;20216;-63
2020/12/02 06:34:49;;;;;;;6.35;2.30;;;3.20;99.90;;;;;;5014119;28;20309;-63
2020/12/02 06:37:16;;;;;;;1.70;0.20;;;3.30;99.90;;;;;;5015229;28;20190;-63
2020/12/02 06:39:48;;;;;;;1.70;0.20;;;3.20;99.90;;;;;;5008881;28;20283;-63
2020/12/02 06:42:25;;;;;;;1.90;0.20;;;3.30;99.90;;;;;;5010145;28;20194;-63
2020/12/02 06:45:10;;;;;;;15.55;6.10;;;3.30;99.90;;;;;;5007084;28;20214;-63
2020/12/02 06:47:51;;;;;;;1.70;0.20;;;3.30;99.90;;;;;;5007815;28;20186;-63
2020/12/02 06:50:33;;;;;;;1.70;0.20;;;3.40;99.90;;;;;;5007032;28;20217;-62
2020/12/02 06:53:20;;;;;;;1.70;0.30;;;3.50;99.90;;;;;;5010836;28;20190;-63
2020/12/02 06:55:48;;;;;;;1.70;0.20;;;3.50;99.90;;;;;;5001873;28;20714;-63
2020/12/02 06:58:19;;;;;;;1.70;0.20;;;3.50;99.90;;;;;;5007155;28;20650;-63
2020/12/02 07:00:56;;;;;;;1.90;0.30;;;3.50;99.90;;;;;;5004822;28;20190;-63
2020/12/02 07:03:37;;;;;;;2.15;1.40;;;3.40;99.90;;;;;;5007692;28;20186;-63
2020/12/02 07:06:24;;;;;;;2.00;1.00;;;3.40;99.90;;;;;;5005681;28;20221;-63
2020/12/02 07:09:00;;;;;;;1.70;0.20;;;3.40;99.90;;;;;;5007224;28;20573;-63
2020/12/02 07:11:26;;;;;;;1.70;0.20;;;3.40;99.90;;;;;;5005663;28;20277;-63
2020/12/02 07:13:53;;;;;;;1.70;0.20;;;3.50;99.90;;;;;;5011558;28;20197;-64
2020/12/02 07:16:28;;;;;;;1.80;0.20;;;3.50;99.90;;;;;;5008192;28;20210;-64
2020/12/02 07:18:58;;;;;;;10.75;4.28;;;3.50;99.90;;;;;;5009987;28;20192;-63
2020/12/02 07:21:35;;;;;;;1.70;0.20;;;3.40;99.90;;;;;;5005935;28;20569;-63
2020/12/02 07:24:02;;;;;;;1.70;0.20;;;3.40;99.90;;;;;;5006175;28;20194;-63
2020/12/02 07:26:28;;;;;;;5.80;2.58;;;3.50;99.90;;;;;;5011745;28;20278;-63
2020/12/02 07:29:01;;;;;;;2.00;0.68;;;3.50;99.90;;;;;;5017414;28;20191;-63
2020/12/02 07:31:29;;;;;;;2.72;1.23;;;3.50;99.90;;;;;;5009640;28;21392;-63
2020/12/02 07:34:01;;;;;;;1.70;0.20;;;3.40;99.90;;;;;;5011709;28;20198;-63
2020/12/02 07:36:29;;;;;;;3.35;0.95;;;3.40;99.90;;;;;;5010812;28;20211;-64
2020/12/02 07:39:08;;;;;;;1.73;0.28;;;3.30;99.90;;;;;;5005122;28;20202;-63
2020/12/02 07:41:34;;;;;;;6.25;3.38;;;3.30;99.90;;;;;;5008996;28;20523;-63
2020/12/02 07:44:01;;;;;;;1.70;0.20;;;3.30;99.90;;;;;;5013946;28;20197;-63
2020/12/02 07:46:30;;;;;;;1.70;0.20;;;3.40;99.90;;;;;;5011530;28;20468;-63
2020/12/02 07:48:59;;;;;;;1.70;0.28;;;3.50;99.90;;;;;;5016474;28;20175;-63
2020/12/02 07:51:43;;;;;;;1.70;0.30;;;3.50;99.90;;;;;;5014011;28;20569;-63
2020/12/02 07:54:18;;;;;;;2.08;0.73;;;3.50;99.90;;;;;;5012408;28;20198;-63
2020/12/02 07:56:47;;;;;;;1.80;0.30;;;3.50;99.90;;;;;;5007346;28;20293;-64
2020/12/02 07:59:20;;;;;;;1.70;0.20;;;3.50;99.90;;;;;;5013628;28;20186;-63
2020/12/02 08:01:58;;;;;;;1.75;0.28;;;3.50;99.90;;;;;;5014067;28;20179;-64
2020/12/02 08:04:27;;;;;;;1.70;0.30;;;3.60;99.90;;;;;;5013770;28;20218;-63
2020/12/02 08:07:06;;;;;;;1.70;0.20;;;3.60;99.90;;;;;;5011493;28;20183;-63
2020/12/02 08:09:50;;;;;;;1.70;0.20;;;3.60;99.90;;;;;;5010102;28;20187;-64
2020/12/02 08:12:19;;;;;;;1.70;0.20;;;3.60;99.90;;;;;;5013106;28;20541;-64
2020/12/02 08:14:59;;;;;;;1.75;0.20;;;3.60;99.90;;;;;;5015220;28;20553;-64
2020/12/02 08:17:26;;;;;;;1.70;0.20;;;3.60;99.90;;;;;;5007029;28;20258;-64
2020/12/02 08:19:54;;;;;;;1.70;0.30;;;3.60;99.90;;;;;;5011845;28;20199;-64
2020/12/02 08:22:44;;;;;;;2.72;0.75;;;3.70;99.90;;;;;;5010836;28;20217;-64
2020/12/02 08:25:26;;;;;;;1.77;0.30;;;3.60;99.90;;;;;;5009238;28;20218;-63
2020/12/02 08:27:59;;;;;;;1.70;0.20;;;3.50;99.90;;;;;;5012556;28;20209;-64
2020/12/02 08:30:27;;;;;;;1.70;0.20;;;3.50;99.90;;;;;;5018523;28;22343;-64
2020/12/02 08:33:06;;;;;;;1.70;0.20;;;3.50;99.90;;;;;;5011260;28;20185;-64
2020/12/02 08:35:34;;;;;;;4.47;3.25;;;3.50;99.90;;;;;;5013245;28;20236;-64
2020/12/02 08:38:01;;;;;;;1.70;0.20;;;3.50;99.90;;;;;;5020630;28;20189;-63
2020/12/02 08:40:29;;;;;;;1.70;0.20;;;3.50;99.90;;;;;;5018996;28;20186;-64
2020/12/02 08:43:22;;;;;;;2.40;0.55;;;3.60;99.90;;;;;;5012521;28;20179;-64
2020/12/02 08:46:07;;;;;;;6.25;5.18;;;3.60;99.90;;;;;;5012950;28;20222;-63
2020/12/02 08:48:34;;;;;;;2.22;1.58;;;3.60;99.90;;;;;;5007549;28;20179;-64
2020/12/02 08:51:00;;;;;;;1.70;0.20;;;3.60;99.90;;;;;;5007959;28;20202;-64
2020/12/02 08:53:28;;;;;;;1.70;0.20;;;3.60;99.90;;;;;;5011402;28;20539;-64
2020/12/02 08:55:55;;;;;;;1.90;0.30;;;3.50;99.90;;;;;;5009560;28;20439;-64
2020/12/02 08:58:21;;;;;;;1.73;0.30;;;3.50;99.90;;;;;;5008806;28;20507;-64
2020/12/02 09:00:48;;;;;;;1.70;0.20;;;3.50;99.90;;;;;;5009082;28;20182;-63
2020/12/02 09:03:14;;;;;;;1.77;0.43;;;3.40;99.90;;;;;;5008663;28;20669;-63
2020/12/02 09:05:39;;;;;;;1.70;0.20;;;3.40;99.90;;;;;;5003435;28;20556;-64
2020/12/02 09:08:05;;;;;;;1.70;0.20;;;3.50;99.90;;;;;;5012970;28;20177;-64
2020/12/02 09:10:31;;;;;;;1.70;0.20;;;3.50;99.90;;;;;;5003954;28;20685;-65
2020/12/02 09:12:58;;;;;;;1.70;0.20;;;3.60;99.90;;;;;;5010449;28;20270;-64
2020/12/02 09:15:25;;;;;;;1.70;0.20;;;3.50;99.90;;;;;;5010271;28;20282;-64
2020/12/02 09:17:51;;;;;;;1.70;0.20;;;3.60;99.90;;;;;;5023677;28;20194;-64
2020/12/02 09:20:17;;;;;;;1.70;0.20;;;3.60;99.90;;;;;;5028316;28;20179;-64
2020/12/02 09:22:43;;;;;;;1.70;0.20;;;3.60;99.90;;;;;;5011116;28;20197;-64
2020/12/02 09:25:08;;;;;;;1.80;0.20;;;3.70;99.90;;;;;;5006908;28;20572;-66
2020/12/02 09:27:36;;;;;;;1.70;0.20;;;3.70;99.90;;;;;;5008039;28;20213;-65
2020/12/02 09:30:03;;;;;;;1.70;0.20;;;3.70;99.90;;;;;;5004210;28;20191;-64
2020/12/02 09:32:28;;;;;;;1.70;0.20;;;3.80;99.90;;;;;;5005012;28;20179;-65
2020/12/02 09:34:54;;;;;;;1.70;0.20;;;3.80;99.90;;;;;;5012891;28;20926;-63
2020/12/02 09:37:19;;;;;;;1.70;0.20;;;3.70;99.90;;;;;;5010692;28;20273;-64
2020/12/02 09:39:45;;;;;;;2.93;1.63;;;3.80;99.90;;;;;;5007457;28;20186;-64
2020/12/02 09:42:48;;;;;;;1.70;0.20;;;3.80;99.90;;;;;;5005435;28;20187;-63
2020/12/02 09:45:32;;;;;;;1.70;0.30;;;3.80;99.90;;;;;;5009630;28;20214;-64
2020/12/02 09:48:03;;;;;;;4.18;1.63;;;3.80;99.90;;;;;;5051160;23;20667;-59
2020/12/02 09:50:29;;;;;;;1.75;0.20;;;3.90;99.90;;;;;;5032727;28;20190;-58
2020/12/02 09:52:57;;;;;;;1.70;0.20;;;3.80;99.90;;;;;;5031257;28;20273;-61
2020/12/02 09:55:24;;;;;;;1.70;0.20;;;3.80;99.90;;;;;;5026538;28;20273;-59
2020/12/02 09:57:51;;;;;;;1.70;0.20;;;3.80;99.90;;;;;;5025346;28;20652;-59
2020/12/02 10:00:22;;;;;;;1.80;0.43;;;3.90;99.90;;;;;;5027228;28;20193;-58
2020/12/02 10:03:33;;;;;;;1.80;0.52;;;3.90;99.90;;;;;;5026182;28;20186;-58
2020/12/02 10:06:30;;;;;;;1.90;0.57;;;3.90;99.90;;;;;;5022509;28;20237;-59
2020/12/02 10:09:30;;;;;;;1.70;0.20;;;3.90;99.90;;;;;;5030013;28;20185;-59
2020/12/02 10:12:29;;;;;;;1.70;0.20;;;3.90;99.90;;;;;;5030110;28;20240;-59
2020/12/02 10:15:17;;;;;;;1.70;0.20;;;4.00;99.90;;;;;;5031131;28;20205;-59
2020/12/02 10:17:59;;;;;;;1.70;0.20;;;4.00;99.90;;;;;;5020629;28;20206;-59
2020/12/02 10:20:35;;;;;;;2.95;0.82;;;4.00;99.90;;;;;;5020365;28;20197;-59
2020/12/02 10:23:20;;;;;;;3.67;2.90;;;4.00;99.90;;;;;;5030997;28;20189;-59
2020/12/02 10:25:58;;;;;;;1.70;0.20;;;4.00;99.90;;;;;;5029798;28;20212;-59
2020/12/02 10:28:31;;;;;;;1.70;0.20;;;4.00;99.90;;;;;;5028735;28;20194;-59
2020/12/02 10:31:22;;;;;;;1.70;0.20;;;4.00;99.90;;;;;;5024757;28;20549;-59
2020/12/02 10:34:04;;;;;;;1.70;0.20;;;4.10;99.90;;;;;;5029777;28;20181;-59
2020/12/02 10:36:37;;;;;;;1.70;0.20;;;4.10;99.90;;;;;;5028773;28;20692;-58
2020/12/02 10:39:08;;;;;;;1.70;0.20;;;4.10;99.90;;;;;;5030055;28;20644;-59
2020/12/02 10:41:33;;;;;;;5.57;3.25;;;4.10;99.90;;;;;;5030935;28;20600;-59
2020/12/02 10:44:24;;;;;;;8.10;5.20;;;4.00;99.90;;;;;;5025333;28;20187;-59
2020/12/02 10:46:56;;;;;;;1.70;0.20;;;3.90;99.90;;;;;;5029216;28;20292;-59
2020/12/02 10:49:28;;;;;;;1.70;0.20;;;3.90;99.90;;;;;;5029960;28;20641;-59
2020/12/02 10:51:57;;;;;;;1.70;0.20;;;3.90;99.90;;;;;;5021467;28;20186;-59
2020/12/02 10:54:34;;;;;;;1.70;0.22;;;3.90;99.90;;;;;;5029776;28;20184;-58
2020/12/02 10:57:19;;;;;;;1.70;0.20;;;3.90;99.90;;;;;;5031535;28;20802;-59
2020/12/02 10:59:46;;;;;;;1.70;0.20;;;3.90;99.90;;;;;;5028879;28;20190;-58
2020/12/02 11:02:20;;;;;;;1.70;0.20;;;3.80;99.90;;;;;;5028222;28;20174;-59
2020/12/02 11:04:47;;;;;;;1.70;0.20;;;3.80;99.90;;;;;;5019902;28;20202;-60
2020/12/02 11:07:35;;;;;;;1.70;0.20;;;3.90;99.90;;;;;;5022305;28;20300;-60
2020/12/02 11:10:17;;;;;;;2.13;0.57;;;3.90;99.90;;;;;;5018005;28;20198;-59
2020/12/02 11:13:14;;;;;;;1.70;0.20;;;3.90;99.90;;;;;;5027725;28;20185;-58
2020/12/02 11:16:04;;;;;;;1.70;0.20;;;3.90;99.90;;;;;;5029186;28;20209;-58
2020/12/02 11:18:43;;;;;;;1.70;0.20;;;4.00;99.90;;;;;;5030482;28;20193;-59
2020/12/02 11:21:26;;;;;;;1.70;0.20;;;4.00;99.90;;;;;;5023994;28;20177;-59
2020/12/02 11:24:26;;;;;;;1.80;0.50;;;4.00;99.90;;;;;;5027116;28;20193;-60
2020/12/02 11:26:52;;;;;;;1.70;0.20;;;4.00;99.90;;;;;;5030500;28;20209;-59
2020/12/02 11:29:20;;;;;;;3.07;1.30;;;4.00;99.90;;;;;;5048166;28;20197;-66
2020/12/02 11:32:28;;;;;;;1.70;0.20;;;4.00;99.90;;;;;;5054853;28;20189;-58
2020/12/02 11:34:56;;;;;;;2.35;0.80;;;3.90;99.90;;;;;;5047270;28;20166;-59
2020/12/02 11:37:55;;;;;;;1.70;0.20;;;3.90;99.90;;;;;;5029408;28;20197;-59
2020/12/02 11:40:27;;;;;;;1.70;0.20;;;3.90;99.90;;;;;;5018966;28;20197;-59
2020/12/02 11:42:58;;;;;;;1.70;0.20;;;3.90;99.90;;;;;;5035574;28;20191;-59
2020/12/02 11:45:26;;;;;;;1.70;0.30;;;3.90;99.90;;;;;;5034780;28;20210;-59
2020/12/02 11:48:16;;;;;;;2.33;1.20;;;3.90;99.90;;;;;;5027175;28;20218;-58
2020/12/02 11:50:50;;;;;;;1.80;0.20;;;3.90;99.90;;;;;;5032051;28;20194;-60
2020/12/02 11:53:37;;;;;;;2.33;1.45;;;3.90;99.90;;;;;;5035012;28;20182;-59
2020/12/02 11:56:03;;;;;;;1.77;0.32;;;3.90;99.90;;;;;;5031985;28;20245;-59
2020/12/02 11:58:29;;;;;;;8.18;5.47;;;3.80;99.90;;;;;;5032914;28;20193;-59
2020/12/02 12:01:03;;;;;;;5.10;2.97;;;3.70;99.90;;;;;;5027448;28;20560;-60
2020/12/02 12:03:50;;;;;;;1.85;0.68;;;3.70;99.90;;;;;;5032844;28;20440;-59
2020/12/02 12:06:20;;;;;;;1.70;0.20;;;3.70;99.90;;;;;;5025181;28;20225;-60
2020/12/02 12:08:49;;;;;;;4.43;3.95;;;3.70;99.90;;;;;;5032097;28;20243;-60
2020/12/02 12:11:29;;;;;;;1.70;0.20;;;3.70;99.90;;;;;;5024364;28;20266;-59
2020/12/02 12:14:18;;;;;;;1.70;0.20;;;3.60;99.90;;;;;;5031068;28;20657;-60
2020/12/02 12:17:16;;;;;;;2.13;1.27;;;3.70;99.90;;;;;;5025466;28;20597;-59
2020/12/02 12:19:44;;;;;;;1.70;0.20;;;3.70;99.90;;;;;;5033434;28;20189;-60
2020/12/02 12:22:44;;;;;;;2.97;1.05;;;3.80;99.90;;;;;;5028239;28;20182;-60
2020/12/02 12:25:22;;;;;;;1.70;0.20;;;3.70;99.90;;;;;;5009954;28;20210;-59
2020/12/02 12:27:50;;;;;;;1.70;0.20;;;3.80;99.90;;;;;;5018662;28;20759;-60
2020/12/02 12:30:16;;;;;;;1.70;0.20;;;3.70;99.90;;;;;;5035928;28;20225;-60
2020/12/02 12:32:59;;;;;;;1.70;0.20;;;3.80;99.90;;;;;;5036415;28;20224;-59
2020/12/02 12:35:27;;;;;;;1.70;0.20;;;3.90;99.90;;;;;;5033502;28;20182;-63
2020/12/02 12:38:18;;;;;;;1.83;0.32;;;3.90;99.90;;;;;;5040403;28;20212;-60
2020/12/02 12:40:50;;;;;;;2.22;0.85;;;4.00;99.90;;;;;;4999948;28;20209;-60
2020/12/02 12:43:19;;;;;;;1.70;0.20;;;3.90;99.90;;;;;;5027556;28;20235;-60
2020/12/02 12:45:57;;;;;;;1.70;0.20;;;3.90;99.90;;;;;;5034840;28;20201;-58
2020/12/02 12:48:23;;;;;;;1.70;0.20;;;3.90;99.90;;;;;;5030483;28;20248;-60
2020/12/02 12:50:51;;;;;;;1.95;0.52;;;3.90;99.90;;;;;;5030875;28;20182;-59
2020/12/02 12:53:19;;;;;;;1.70;0.20;;;3.90;99.90;;;;;;5028076;28;20178;-60
2020/12/02 12:55:44;;;;;;;1.70;0.20;;;3.90;99.90;;;;;;5028041;28;20645;-60
2020/12/02 12:58:16;;;;;;;1.70;0.20;;;4.00;99.90;;;;;;5034037;28;20208;-59
2020/12/02 13:00:50;;;;;;;1.70;0.20;;;4.00;99.90;;;;;;5029531;28;20186;-59
2020/12/02 13:03:29;;;;;;;1.70;0.20;;;4.00;99.90;;;;;;5027567;28;20272;-58
2020/12/02 13:06:08;;;;;;;1.70;0.20;;;4.00;99.90;;;;;;5032646;28;20210;-60
2020/12/02 13:08:40;;;;;;;1.70;0.20;;;4.00;99.90;;;;;;5032501;28;20178;-58
2020/12/02 13:11:16;;;;;;;1.70;0.20;;;3.90;99.90;;;;;;5027688;28;20182;-59
2020/12/02 13:14:16;;;;;;;4.43;3.95;;;3.90;99.90;;;;;;5030559;28;20181;-60
2020/12/02 13:17:18;;;;;;;2.00;0.40;;;3.90;99.90;;;;;;5021326;28;20214;-60
2020/12/02 13:20:01;;;;;;;1.70;0.20;;;3.90;99.90;;;;;;5027819;28;20560;-59
2020/12/02 13:22:41;;;;;;;1.70;0.20;;;3.80;99.90;;;;;;5028255;28;20260;-59
2020/12/02 13:25:18;;;;;;;1.73;0.20;;;3.80;99.90;;;;;;5029673;28;20204;-59
2020/12/02 13:27:50;;;;;;;1.70;0.20;;;3.90;99.90;;;;;;5032083;28;20202;-59
2020/12/02 13:30:21;;;;;;;1.70;0.20;;;3.90;99.90;;;;;;5027356;28;20222;-59